Terminal Aerodrome Forecast
Issued by NWS Tampa Bay Area, FL

Home | Current Version | Previous Version | Text Only | Print | Product List | Glossary On
Versions: 1 2 3 4 5 6 7 8 9 10 11 12 13 14
000
FTUS42 KTBW 310539
TAFFMY
TAF
KFMY 310539Z 3106/0106 VRB03KT P6SM VCSH FEW060 BKN250
     FM311200 20004KT P6SM VCTS SCT030CB BKN250
     FM311600 23009KT P6SM VCTS SCT030CB BKN250
     FM010000 20004KT P6SM SCT030 BKN250=

USA.gov is the U.S. government's official web portal to all federal, state and local government web resources and services.